createdAt,value
2022-08-23T00:00:12.975Z,23.58
2022-08-23T00:02:43.627Z,23.64
2022-08-23T00:05:13.448Z,23.52
2022-08-23T00:07:45.530Z,23.71
2022-08-23T00:10:17.392Z,23.61
2022-08-23T00:12:47.562Z,23.47
2022-08-23T00:15:20.772Z,23.55
2022-08-23T00:17:49.318Z,23.57
2022-08-23T00:20:20.745Z,23.60
2022-08-23T00:22:49.201Z,23.60
2022-08-23T00:25:18.903Z,23.57
2022-08-23T00:27:47.314Z,23.60
2022-08-23T00:30:19.081Z,23.72
2022-08-23T00:32:47.429Z,23.65
2022-08-23T00:35:23.732Z,23.67
2022-08-23T00:38:32.222Z,23.68
2022-08-23T00:40:47.509Z,23.64
2022-08-23T00:43:38.993Z,23.73
2022-08-23T00:46:37.175Z,23.75
2022-08-23T00:49:10.649Z,23.20
2022-08-23T00:51:52.824Z,23.72
2022-08-23T00:54:24.657Z,23.88
2022-08-23T00:56:55.056Z,23.86
2022-08-23T00:59:24.635Z,23.81
2022-08-23T01:01:54.847Z,23.73
2022-08-23T01:04:23.794Z,23.69
2022-08-23T01:06:59.353Z,23.59
2022-08-23T01:09:27.915Z,23.53
2022-08-23T01:12:04.543Z,23.46
2022-08-23T01:14:37.872Z,23.35
2022-08-23T01:17:14.147Z,23.35
2022-08-23T01:19:48.779Z,23.46
2022-08-23T01:22:22.170Z,23.49
2022-08-23T01:25:07.372Z,23.35
2022-08-23T01:27:43.172Z,23.60
2022-08-23T01:30:19.645Z,23.66
2022-08-23T01:32:53.258Z,23.76
2022-08-23T01:38:00.261Z,23.98
2022-08-23T01:40:32.547Z,23.92
2022-08-23T01:43:02.464Z,23.91
2022-08-23T01:45:32.462Z,24.01
2022-08-23T01:48:02.727Z,24.10
2022-08-23T01:50:32.211Z,24.09
2022-08-23T01:53:01.506Z,24.03
2022-08-23T01:55:32.626Z,23.61
2022-08-23T01:58:02.642Z,23.28
2022-08-23T02:00:35.641Z,23.45
2022-08-23T02:03:05.861Z,23.18
2022-08-23T02:05:37.222Z,22.84
2022-08-23T02:08:21.326Z,22.82
2022-08-23T02:10:53.285Z,22.72
2022-08-23T02:13:22.172Z,22.79
2022-08-23T02:15:51.972Z,22.75
2022-08-23T02:18:22.414Z,22.93
2022-08-23T02:20:54.652Z,23.04
2022-08-23T02:23:24.020Z,23.16
2022-08-23T02:25:54.434Z,23.39
2022-08-23T02:28:25.403Z,23.52
2022-08-23T02:30:53.856Z,23.72
2022-08-23T02:33:22.268Z,23.82
2022-08-23T02:35:50.835Z,23.93
2022-08-23T02:38:19.549Z,23.98
2022-08-23T02:40:52.912Z,24.06
2022-08-23T02:43:36.442Z,24.12
2022-08-23T02:46:07.776Z,24.13
2022-08-23T02:48:37.630Z,24.17
2022-08-23T02:51:09.705Z,24.20
2022-08-23T02:53:38.603Z,23.97
2022-08-23T02:56:13.082Z,23.64
2022-08-23T02:58:54.037Z,24.21
2022-08-23T03:01:28.566Z,24.17
2022-08-23T03:04:01.828Z,24.13
2022-08-23T03:06:32.175Z,24.16
2022-08-23T03:09:00.915Z,24.16
2022-08-23T03:11:29.503Z,24.04
2022-08-23T03:14:00.674Z,24.04
2022-08-23T03:16:30.459Z,23.92
2022-08-23T03:18:58.906Z,23.84
2022-08-23T03:21:27.210Z,23.80
2022-08-23T03:23:56.862Z,23.66
2022-08-23T03:26:25.760Z,23.54
2022-08-23T03:28:54.955Z,23.68
2022-08-23T03:31:29.597Z,23.70
2022-08-23T03:34:08.007Z,23.65
2022-08-23T03:36:36.994Z,23.49
2022-08-23T03:39:07.471Z,23.26
2022-08-23T03:41:35.880Z,23.18
2022-08-23T03:44:05.122Z,23.07
2022-08-23T03:46:38.357Z,23.09
2022-08-23T03:49:07.108Z,23.03
2022-08-23T03:51:55.972Z,23.04
2022-08-23T03:54:24.997Z,22.96
2022-08-23T03:57:00.443Z,22.93
2022-08-23T03:59:34.078Z,22.96
2022-08-23T04:02:06.354Z,23.03
2022-08-23T04:04:34.959Z,23.09
2022-08-23T04:07:26.755Z,23.01
2022-08-23T04:09:57.531Z,23.04
2022-08-23T04:12:28.820Z,23.11
2022-08-23T04:14:57.470Z,23.17
2022-08-23T04:17:32.099Z,23.09
2022-08-23T04:20:01.245Z,23.06
2022-08-23T04:22:30.875Z,23.03
2022-08-23T04:24:59.341Z,23.10
2022-08-23T04:27:28.004Z,22.98
2022-08-23T04:29:56.466Z,22.91
2022-08-23T04:32:28.365Z,22.97
2022-08-23T04:34:58.635Z,22.96
2022-08-23T04:37:28.122Z,22.88
2022-08-23T04:40:14.481Z,22.80
2022-08-23T04:42:44.284Z,22.63
2022-08-23T04:45:14.211Z,22.47
2022-08-23T04:47:47.722Z,22.52
2022-08-23T04:50:17.500Z,22.54
2022-08-23T04:53:12.927Z,22.42
2022-08-23T04:55:52.447Z,22.58
2022-08-23T04:58:21.551Z,22.61
2022-08-23T05:00:51.812Z,22.62
2022-08-23T05:03:28.098Z,22.49
2022-08-23T05:05:58.278Z,22.50
2022-08-23T05:08:33.530Z,22.47
2022-08-23T05:11:03.086Z,22.06
2022-08-23T05:13:31.751Z,21.88
2022-08-23T05:16:05.236Z,22.50
2022-08-23T05:18:38.392Z,22.58
2022-08-23T05:21:07.975Z,22.65
2022-08-23T05:23:36.761Z,22.57
2022-08-23T05:26:10.032Z,22.61
2022-08-23T05:28:45.130Z,22.61
2022-08-23T05:31:21.118Z,22.67
2022-08-23T05:33:56.909Z,22.86
2022-08-23T05:36:38.977Z,22.98
2022-08-23T05:39:25.739Z,22.46
2022-08-23T05:42:07.862Z,23.30
2022-08-23T05:44:37.222Z,23.38
2022-08-23T05:47:10.402Z,23.31
2022-08-23T05:49:46.152Z,23.62
2022-08-23T05:52:15.563Z,23.75
2022-08-23T05:54:45.355Z,24.00
2022-08-23T05:57:43.103Z,24.30
2022-08-23T06:00:14.911Z,24.32
2022-08-23T06:02:51.584Z,24.54
2022-08-23T06:05:23.215Z,24.65
2022-08-23T06:07:52.382Z,24.87
2022-08-23T06:10:23.729Z,25.00
2022-08-23T06:12:58.815Z,25.06
2022-08-23T06:15:27.071Z,25.20
2022-08-23T06:17:55.443Z,25.49
2022-08-23T06:20:25.273Z,25.74
2022-08-23T06:23:02.162Z,25.87
2022-08-23T06:25:32.249Z,26.05
2022-08-23T06:28:09.516Z,26.33
2022-08-23T06:30:40.167Z,26.48
2022-08-23T06:33:19.240Z,26.53
2022-08-23T06:35:51.022Z,26.67
2022-08-23T06:38:27.122Z,26.84
2022-08-23T06:41:13.972Z,26.95
2022-08-23T06:44:01.850Z,27.06
2022-08-23T06:46:49.365Z,27.17
2022-08-23T06:49:18.330Z,27.11
2022-08-23T06:51:52.357Z,27.25
2022-08-23T06:54:34.707Z,27.30
2022-08-23T06:57:24.236Z,27.46
2022-08-23T07:00:22.272Z,26.81
2022-08-23T07:03:09.894Z,27.57
2022-08-23T07:05:56.520Z,27.66
2022-08-23T07:08:31.944Z,27.63
2022-08-23T07:11:00.308Z,27.61
2022-08-23T07:13:28.736Z,27.55
2022-08-23T07:16:00.234Z,27.56
2022-08-23T07:18:29.226Z,27.50
2022-08-23T07:20:58.883Z,27.37
2022-08-23T07:23:28.301Z,27.37
2022-08-23T07:25:59.227Z,27.42
2022-08-23T07:28:30.971Z,27.39
2022-08-23T07:31:13.098Z,27.37
2022-08-23T07:33:44.696Z,27.34
2022-08-23T07:36:19.922Z,27.30
2022-08-23T07:38:51.460Z,27.27
2022-08-23T07:41:22.185Z,27.20
2022-08-23T07:43:50.992Z,27.39
2022-08-23T07:46:20.984Z,27.29
2022-08-23T07:48:54.290Z,27.46
2022-08-23T07:51:33.262Z,27.60
2022-08-23T07:54:03.594Z,27.71
2022-08-23T07:56:33.605Z,27.79
2022-08-23T07:59:15.305Z,27.44
2022-08-23T08:02:03.382Z,28.02
2022-08-23T08:04:31.993Z,28.07
2022-08-23T08:07:18.202Z,28.17
2022-08-23T08:09:50.795Z,28.31
2022-08-23T08:12:20.914Z,28.40
2022-08-23T08:14:53.463Z,28.46
2022-08-23T08:17:27.639Z,28.12
2022-08-23T08:20:28.272Z,28.36
2022-08-23T08:23:15.383Z,28.33
2022-08-23T08:26:12.422Z,28.39
2022-08-23T08:28:53.236Z,28.31
2022-08-23T08:31:21.605Z,28.26
2022-08-23T08:33:50.077Z,28.21
2022-08-23T08:36:41.800Z,28.25
2022-08-23T08:39:18.712Z,28.12
2022-08-23T08:42:04.661Z,28.09
2022-08-23T08:44:46.036Z,28.09
2022-08-23T08:47:22.781Z,28.09
2022-08-23T08:49:59.150Z,28.16
2022-08-23T08:52:32.250Z,28.14
2022-08-23T08:55:14.182Z,28.08
2022-08-23T08:57:47.920Z,28.06
2022-08-23T09:00:23.366Z,27.97
2022-08-23T09:02:53.087Z,28.05
2022-08-23T09:05:27.674Z,28.05
2022-08-23T09:08:13.379Z,28.09
2022-08-23T09:10:52.931Z,28.22
2022-08-23T09:13:53.542Z,28.23
2022-08-23T09:16:37.366Z,28.44
2022-08-23T09:19:07.360Z,28.46
2022-08-23T09:21:45.770Z,28.61
2022-08-23T09:24:14.971Z,28.70
2022-08-23T09:27:02.264Z,28.38
2022-08-23T09:29:33.091Z,28.84
2022-08-23T09:32:06.661Z,29.05
2022-08-23T09:34:43.672Z,29.19
2022-08-23T09:37:25.179Z,29.27
2022-08-23T09:40:16.428Z,29.33
2022-08-23T09:42:47.415Z,29.35
2022-08-23T09:45:33.122Z,29.30
2022-08-23T09:48:06.183Z,29.36
2022-08-23T09:50:43.338Z,29.45
2022-08-23T09:53:15.707Z,29.52
2022-08-23T09:55:51.333Z,29.54
2022-08-23T09:58:36.842Z,29.44
2022-08-23T10:01:13.909Z,29.51
2022-08-23T10:03:47.597Z,29.58
2022-08-23T10:06:34.130Z,29.55
2022-08-23T10:09:08.247Z,29.57
2022-08-23T10:11:44.923Z,29.24
2022-08-23T10:14:15.627Z,29.66
2022-08-23T10:17:00.479Z,29.57
2022-08-23T10:19:43.787Z,29.64
2022-08-23T10:22:20.820Z,29.58
2022-08-23T10:25:14.292Z,29.43
2022-08-23T10:28:07.381Z,29.57
2022-08-23T10:30:47.112Z,29.83
2022-08-23T10:33:23.538Z,29.99
2022-08-23T10:36:15.902Z,30.11
2022-08-23T10:38:51.862Z,30.20
2022-08-23T10:41:41.693Z,30.24
2022-08-23T10:44:26.892Z,30.16
2022-08-23T10:47:12.277Z,30.24
2022-08-23T10:49:43.398Z,30.39
2022-08-23T10:52:22.004Z,30.46
2022-08-23T10:55:01.069Z,30.59
2022-08-23T10:57:36.764Z,30.55
2022-08-23T11:00:10.747Z,30.67
2022-08-23T11:02:49.659Z,30.59
2022-08-23T11:05:36.331Z,30.50
2022-08-23T11:08:36.719Z,30.50
2022-08-23T11:11:43.200Z,30.51
2022-08-23T11:14:27.281Z,30.43
2022-08-23T11:17:00.574Z,29.97
2022-08-23T11:19:52.477Z,30.52
2022-08-23T11:22:25.830Z,30.72
2022-08-23T11:25:03.154Z,30.92
2022-08-23T11:27:42.682Z,31.01
2022-08-23T11:30:50.775Z,30.89
2022-08-23T11:33:28.544Z,31.09
2022-08-23T11:36:21.849Z,31.27
2022-08-23T11:39:19.523Z,31.31
2022-08-23T11:42:09.882Z,31.11
2022-08-23T11:44:43.210Z,31.02
2022-08-23T11:47:15.438Z,31.10
2022-08-23T11:50:21.218Z,31.17
2022-08-23T11:53:11.874Z,31.13
2022-08-23T11:56:15.335Z,31.13
2022-08-23T11:59:22.981Z,31.03
2022-08-23T12:01:52.825Z,30.82
2022-08-23T12:04:37.549Z,30.83
2022-08-23T12:07:12.809Z,30.76
2022-08-23T12:09:57.908Z,30.61
2022-08-23T12:12:39.253Z,30.24
2022-08-23T12:15:13.192Z,30.45
2022-08-23T12:18:17.425Z,30.41
2022-08-23T12:20:50.184Z,29.94
2022-08-23T12:23:21.901Z,30.01
2022-08-23T12:26:07.275Z,29.97
2022-08-23T12:28:45.397Z,29.85
2022-08-23T12:31:26.878Z,29.73
2022-08-23T12:34:19.698Z,29.35
2022-08-23T12:36:59.577Z,28.73
2022-08-23T12:39:33.297Z,28.92
2022-08-23T12:42:08.267Z,28.96
2022-08-23T12:44:36.915Z,28.88
2022-08-23T12:47:15.863Z,29.02
2022-08-23T12:49:58.112Z,29.28
2022-08-23T12:52:30.098Z,29.36
2022-08-23T12:54:59.205Z,29.35
2022-08-23T12:57:36.079Z,29.48
2022-08-23T13:00:18.897Z,29.46
2022-08-23T13:02:56.974Z,29.54
2022-08-23T13:05:39.120Z,29.64
2022-08-23T13:08:11.830Z,29.83
2022-08-23T13:10:43.486Z,29.97
2022-08-23T13:13:16.033Z,30.07
2022-08-23T13:15:53.006Z,29.92
2022-08-23T13:18:32.843Z,29.83
2022-08-23T13:21:28.758Z,29.95
2022-08-23T13:24:03.568Z,29.93
2022-08-23T13:26:40.282Z,29.95
2022-08-23T13:29:14.219Z,30.08
2022-08-23T13:32:06.933Z,30.02
2022-08-23T13:34:47.045Z,30.13
2022-08-23T13:37:24.520Z,30.29
2022-08-23T13:39:55.940Z,30.25
2022-08-23T13:42:36.616Z,30.00
2022-08-23T13:45:11.238Z,30.38
2022-08-23T13:47:39.659Z,30.32
2022-08-23T13:50:18.830Z,30.18
2022-08-23T13:53:13.027Z,30.40
2022-08-23T13:55:44.190Z,30.39
2022-08-23T13:58:15.239Z,30.19
2022-08-23T14:00:55.064Z,30.41
2022-08-23T14:03:25.076Z,30.32
2022-08-23T14:05:55.032Z,30.57
2022-08-23T14:08:23.476Z,30.51
2022-08-23T14:10:52.170Z,30.58
2022-08-23T14:13:22.950Z,30.66
2022-08-23T14:15:56.763Z,30.63
2022-08-23T14:18:27.064Z,30.59
2022-08-23T14:20:57.024Z,30.42
2022-08-23T14:23:25.381Z,30.55
2022-08-23T14:25:58.955Z,30.53
2022-08-23T14:28:31.258Z,30.56
2022-08-23T14:30:59.929Z,30.59
2022-08-23T14:33:28.333Z,30.62
2022-08-23T14:35:58.287Z,30.44
2022-08-23T14:38:26.748Z,29.88
2022-08-23T14:40:59.068Z,29.69
2022-08-23T14:43:28.151Z,29.62
2022-08-23T14:45:57.047Z,29.31
2022-08-23T14:48:26.384Z,29.20
2022-08-23T14:50:57.533Z,29.30
2022-08-23T14:53:30.891Z,29.28
2022-08-23T14:56:20.277Z,29.41
2022-08-23T14:58:47.516Z,29.25
2022-08-23T15:01:16.335Z,29.07
2022-08-23T15:03:44.913Z,28.91
2022-08-23T15:06:16.683Z,28.85
2022-08-23T15:08:45.930Z,29.02
2022-08-23T15:14:04.114Z,28.87
2022-08-23T15:16:33.452Z,28.92
2022-08-23T15:19:02.047Z,29.09
2022-08-23T15:21:31.796Z,29.02
2022-08-23T15:24:00.259Z,29.12
2022-08-23T15:26:31.307Z,28.91
2022-08-23T15:29:00.563Z,28.99
2022-08-23T15:31:29.727Z,29.15
2022-08-23T15:33:58.227Z,29.14
2022-08-23T15:36:28.009Z,29.24
2022-08-23T15:38:57.840Z,29.17
2022-08-23T15:41:26.180Z,29.17
2022-08-23T15:43:54.447Z,29.15
2022-08-23T15:46:24.863Z,29.18
2022-08-23T15:48:56.288Z,29.24
2022-08-23T15:51:25.347Z,29.16
2022-08-23T15:53:53.744Z,29.22
2022-08-23T15:56:28.631Z,29.15
2022-08-23T15:58:57.465Z,29.12
2022-08-23T16:01:28.801Z,29.08
2022-08-23T16:03:57.340Z,29.09
2022-08-23T16:06:25.670Z,29.01
2022-08-23T16:08:54.861Z,28.87
2022-08-23T16:11:24.846Z,28.86
2022-08-23T16:13:55.274Z,28.88
2022-08-23T16:16:28.887Z,28.80
2022-08-23T16:18:58.433Z,28.91
2022-08-23T16:21:29.489Z,29.00
2022-08-23T16:23:59.258Z,28.63
2022-08-23T16:26:34.862Z,28.52
2022-08-23T16:29:07.905Z,29.16
2022-08-23T16:31:39.811Z,29.18
2022-08-23T16:34:11.778Z,29.22
2022-08-23T16:36:42.332Z,29.27
2022-08-23T16:39:12.936Z,29.32
2022-08-23T16:41:42.600Z,29.23
2022-08-23T16:44:11.072Z,29.10
2022-08-23T16:46:42.733Z,28.93
2022-08-23T16:49:11.259Z,28.84
2022-08-23T16:51:39.567Z,28.71
2022-08-23T16:54:08.636Z,28.53
2022-08-23T16:56:39.595Z,28.37
2022-08-23T16:59:12.003Z,28.43
2022-08-23T17:01:52.542Z,28.23
2022-08-23T17:04:21.911Z,28.06
2022-08-23T17:06:50.354Z,28.02
2022-08-23T17:09:18.709Z,28.15
2022-08-23T17:11:47.665Z,28.03
2022-08-23T17:14:17.599Z,27.83
2022-08-23T17:16:47.019Z,27.83
2022-08-23T17:19:15.913Z,27.86
2022-08-23T17:21:45.093Z,27.92
2022-08-23T17:24:13.590Z,27.88
2022-08-23T17:26:41.913Z,27.92
2022-08-23T17:29:10.388Z,27.95
2022-08-23T17:31:40.445Z,27.91
2022-08-23T17:34:08.867Z,27.92
2022-08-23T17:36:42.029Z,28.02
2022-08-23T17:39:18.444Z,28.11
2022-08-23T17:41:47.090Z,28.14
2022-08-23T17:44:15.771Z,28.17
2022-08-23T17:46:49.149Z,28.16
2022-08-23T17:49:19.609Z,28.15
2022-08-23T17:51:49.353Z,28.23
2022-08-23T17:54:18.460Z,28.21
2022-08-23T17:56:50.432Z,28.13
2022-08-23T17:59:20.140Z,28.10
2022-08-23T18:01:49.880Z,27.95
2022-08-23T18:04:18.302Z,27.87
2022-08-23T18:06:47.305Z,27.84
2022-08-23T18:09:16.435Z,27.68
2022-08-23T18:11:44.932Z,27.32
2022-08-23T18:14:13.258Z,27.32
2022-08-23T18:16:44.040Z,27.30
2022-08-23T18:19:15.529Z,27.21
2022-08-23T18:21:45.453Z,27.03
2022-08-23T18:24:14.375Z,27.29
2022-08-23T18:27:01.314Z,27.23
2022-08-23T18:29:30.294Z,27.28
2022-08-23T18:31:58.751Z,27.30
2022-08-23T18:34:29.455Z,27.28
2022-08-23T18:36:59.296Z,27.31
2022-08-23T18:39:31.841Z,27.31
2022-08-23T18:42:01.336Z,27.29
2022-08-23T18:44:29.889Z,27.29
2022-08-23T18:46:58.617Z,27.21
2022-08-23T18:49:28.471Z,27.23
2022-08-23T18:51:57.210Z,27.20
2022-08-23T18:54:25.610Z,27.21
2022-08-23T18:56:53.988Z,27.23
2022-08-23T18:59:22.289Z,27.18
2022-08-23T19:01:51.240Z,27.13
2022-08-23T19:04:20.252Z,26.81
2022-08-23T19:06:50.072Z,26.95
2022-08-23T19:09:23.023Z,26.87
2022-08-23T19:11:51.336Z,26.83
2022-08-23T19:14:19.757Z,26.81
2022-08-23T19:16:48.872Z,26.65
2022-08-23T19:19:18.720Z,26.67
2022-08-23T19:21:47.110Z,26.76
2022-08-23T19:24:17.461Z,26.73
2022-08-23T19:26:47.577Z,26.73
2022-08-23T19:29:18.444Z,26.61
2022-08-23T19:31:48.178Z,26.55
2022-08-23T19:34:17.708Z,26.31
2022-08-23T19:36:58.954Z,26.15
2022-08-23T19:39:30.938Z,25.97
2022-08-23T19:41:59.898Z,25.73
2022-08-23T19:44:28.625Z,25.69
2022-08-23T19:46:57.367Z,25.58
2022-08-23T19:49:25.983Z,25.21
2022-08-23T19:51:54.358Z,25.68
2022-08-23T19:54:22.948Z,25.71
2022-08-23T19:56:59.768Z,25.66
2022-08-23T19:59:31.323Z,25.66
2022-08-23T20:02:00.626Z,25.67
2022-08-23T20:04:32.183Z,25.63
2022-08-23T20:07:02.620Z,25.21
2022-08-23T20:09:33.198Z,25.71
2022-08-23T20:12:03.265Z,25.35
2022-08-23T20:14:33.590Z,25.67
2022-08-23T20:17:04.386Z,25.69
2022-08-23T20:19:32.779Z,25.68
2022-08-23T20:22:16.275Z,25.51
2022-08-23T20:24:51.273Z,25.44
2022-08-23T20:27:25.447Z,25.35
2022-08-23T20:30:00.243Z,25.27
2022-08-23T20:32:29.274Z,25.20
2022-08-23T20:34:58.279Z,25.23
2022-08-23T20:37:26.819Z,25.28
2022-08-23T20:39:55.569Z,25.35
2022-08-23T20:42:25.405Z,25.27
2022-08-23T20:44:53.942Z,25.51
2022-08-23T20:47:22.499Z,25.38
2022-08-23T20:49:51.063Z,25.19
2022-08-23T20:52:19.349Z,25.07
2022-08-23T20:54:47.703Z,25.03
2022-08-23T20:57:16.073Z,25.00
2022-08-23T20:59:45.734Z,24.95
2022-08-23T21:02:14.585Z,24.89
2022-08-23T21:04:42.963Z,24.88
2022-08-23T21:07:11.271Z,24.88
2022-08-23T21:09:39.614Z,24.89
2022-08-23T21:12:08.665Z,25.08
2022-08-23T21:14:37.064Z,24.96
2022-08-23T21:17:07.616Z,24.96
2022-08-23T21:19:35.753Z,24.98
2022-08-23T21:22:04.035Z,24.90
2022-08-23T21:24:32.354Z,24.86
2022-08-23T21:27:00.620Z,24.82
2022-08-23T21:29:29.139Z,24.79
2022-08-23T21:31:57.742Z,24.75
2022-08-23T21:34:27.577Z,24.52
2022-08-23T21:36:56.022Z,24.74
2022-08-23T21:39:24.461Z,24.74
2022-08-23T21:41:55.699Z,24.68
2022-08-23T21:44:25.233Z,24.83
2022-08-23T21:46:53.639Z,24.69
2022-08-23T21:49:23.162Z,24.81
2022-08-23T21:51:54.368Z,24.79
2022-08-23T21:54:24.486Z,24.82
2022-08-23T21:56:52.814Z,24.72
2022-08-23T21:59:21.248Z,24.71
2022-08-23T22:01:50.743Z,24.72
2022-08-23T22:04:19.145Z,24.70
2022-08-23T22:06:48.746Z,24.67
2022-08-23T22:09:25.697Z,24.72
2022-08-23T22:12:00.801Z,24.67
2022-08-23T22:14:31.542Z,24.74
2022-08-23T22:17:00.750Z,24.81
2022-08-23T22:19:29.431Z,24.82
2022-08-23T22:21:58.661Z,24.82
2022-08-23T22:24:28.327Z,24.90
2022-08-23T22:26:57.113Z,24.58
2022-08-23T22:29:25.869Z,24.61
2022-08-23T22:31:54.175Z,24.49
2022-08-23T22:34:22.619Z,24.38
2022-08-23T22:36:52.065Z,24.30
2022-08-23T22:39:21.535Z,24.02
2022-08-23T22:41:51.662Z,23.92
2022-08-23T22:44:20.180Z,23.75
2022-08-23T22:46:48.965Z,23.66
2022-08-23T22:49:17.516Z,23.46
2022-08-23T22:51:45.825Z,23.26
2022-08-23T22:54:17.434Z,23.35
2022-08-23T22:56:51.598Z,23.35
2022-08-23T22:59:27.471Z,23.32
2022-08-23T23:01:58.540Z,23.33
2022-08-23T23:04:28.293Z,23.36
2022-08-23T23:06:57.788Z,23.26
2022-08-23T23:09:26.725Z,23.36
2022-08-23T23:11:56.850Z,23.40
2022-08-23T23:14:25.199Z,23.38
2022-08-23T23:16:54.131Z,23.48
2022-08-23T23:19:39.956Z,23.41
2022-08-23T23:22:09.894Z,23.57
2022-08-23T23:24:40.864Z,23.62
2022-08-23T23:27:10.704Z,23.71
2022-08-23T23:29:39.121Z,23.83
2022-08-23T23:32:07.845Z,23.88
2022-08-23T23:34:37.954Z,23.82
2022-08-23T23:37:07.000Z,23.84
2022-08-23T23:39:35.406Z,23.86
2022-08-23T23:42:03.786Z,23.86
2022-08-23T23:44:33.538Z,23.83
2022-08-23T23:47:02.623Z,23.87
2022-08-23T23:49:33.662Z,23.78
2022-08-23T23:52:04.691Z,23.76
2022-08-23T23:54:34.039Z,23.70
2022-08-23T23:57:03.693Z,23.71
2022-08-23T23:59:34.070Z,23.80
